Time;durP1;ratioP1;P1;durP2;ratioP2;P2;SDS_P1;SDS_P2;PMS_P1;PMS_P2;Temp;Humidity;BMP_temperature;BMP_pressure;BME280_temperature;BME280_humidity;BME280_pressure;Samples;Min_cycle;Max_cycle;Signal;HPM_P1;HPM_P2
2022/08/04 00:01:25;;;;;;;2.42;2.08;;;;;;;20.13;48.21;99349.59;4495646;31;35850;-76
2022/08/04 00:04:28;;;;;;;3.70;2.30;;;;;;;20.47;49.91;99350.53;4502159;31;35192;-76
2022/08/04 00:07:07;;;;;;;2.97;2.20;;;;;;;19.81;48.53;99351.19;4487429;31;34131;-76
2022/08/04 00:10:04;;;;;;;2.85;2.10;;;;;;;20.51;50.17;99361.84;4501083;31;33943;-76
2022/08/04 00:12:36;;;;;;;2.87;2.20;;;;;;;20.36;49.49;99358.16;4499558;31;34874;-76
2022/08/04 00:15:10;;;;;;;2.87;2.15;;;;;;;19.69;51.42;99352.59;4502004;31;34331;-76
2022/08/04 00:17:54;;;;;;;3.30;1.98;;;;;;;19.59;51.03;99354.84;4500306;31;33467;-76
2022/08/04 00:20:23;;;;;;;4.15;2.20;;;;;;;19.84;50.85;99341.31;4500995;31;34650;-75
2022/08/04 00:22:51;;;;;;;2.90;2.05;;;;;;;19.19;53.11;99355.84;4501216;31;34739;-76
2022/08/04 00:25:19;;;;;;;3.47;2.10;;;;;;;19.30;51.69;99350.91;4501956;31;34302;-76
2022/08/04 00:27:48;;;;;;;2.95;2.08;;;;;;;19.55;51.58;99350.59;4501111;31;33374;-76
2022/08/04 00:30:15;;;;;;;6.22;2.47;;;;;;;19.26;52.81;99354.63;4500801;31;33900;-76
2022/08/04 00:32:43;;;;;;;4.32;2.20;;;;;;;19.51;51.90;99349.91;4501400;31;35039;-76
2022/08/04 00:35:15;;;;;;;3.47;2.12;;;;;;;19.94;49.17;99356.72;4500618;31;34446;-76
2022/08/04 00:37:44;;;;;;;3.90;2.40;;;;;;;19.64;49.67;99349.31;4500155;31;34481;-76
2022/08/04 00:40:30;;;;;;;4.65;2.47;;;;;;;19.82;51.83;99358.19;4501014;31;33933;-76
2022/08/04 00:43:04;;;;;;;5.65;2.40;;;;;;;20.59;50.17;99356.97;4483652;32;34907;-75
2022/08/04 00:46:04;;;;;;;6.15;2.87;;;;;;;20.29;51.18;99362.06;4484896;32;34496;-76
2022/08/04 00:48:53;;;;;;;3.92;2.50;;;;;;;19.99;51.84;99360.00;4485046;32;33562;-76
2022/08/04 00:52:16;;;;;;;4.75;2.80;;;;;;;20.27;51.57;99367.41;4487660;31;34027;-75
2022/08/04 00:55:12;;;;;;;4.78;2.87;;;;;;;20.10;51.44;99365.62;4437769;31;35005;-76
2022/08/04 00:58:24;;;;;;;4.07;2.62;;;;;;;20.10;52.20;99363.00;4495072;31;34531;-76
2022/08/04 01:00:58;;;;;;;4.62;3.22;;;;;;;20.21;52.57;99365.94;4488271;31;33439;-76
2022/08/04 01:03:41;;;;;;;4.32;2.83;;;;;;;20.05;52.92;99370.28;4498277;31;34662;-76
2022/08/04 01:06:34;;;;;;;4.65;3.40;;;;;;;20.66;52.29;99360.19;4500886;31;34935;-76
2022/08/04 01:09:44;;;;;;;5.05;3.35;;;;;;;20.65;52.53;99369.94;4485828;32;35169;-76
2022/08/04 01:12:52;;;;;;;4.90;3.35;;;;;;;20.86;52.31;99369.72;4500128;31;33965;-76
2022/08/04 01:15:20;;;;;;;6.10;3.33;;;;;;;20.91;52.37;99365.94;4462294;31;35004;-77
2022/08/04 01:18:08;;;;;;;5.37;3.70;;;;;;;21.31;51.77;99368.22;4500692;31;35109;-76
2022/08/04 01:21:17;;;;;;;4.47;3.00;;;;;;;21.76;50.85;99370.13;4498432;31;34421;-76
2022/08/04 01:24:08;;;;;;;5.62;3.72;;;;;;;21.92;50.71;99367.47;4493612;31;34257;-76
2022/08/04 01:26:50;;;;;;;6.93;3.65;;;;;;;22.21;49.74;99364.06;4496208;31;33794;-76
2022/08/04 01:29:33;;;;;;;6.80;3.47;;;;;;;22.34;49.71;99370.38;4498024;31;35125;-77
2022/08/04 01:32:36;;;;;;;5.10;3.75;;;;;;;22.98;48.54;99368.31;4487254;31;34382;-77
2022/08/04 01:35:13;;;;;;;5.00;3.35;;;;;;;22.86;48.97;99366.41;4490401;31;34496;-77
2022/08/04 01:37:57;;;;;;;6.40;3.58;;;;;;;22.72;49.62;99364.59;4500220;31;34066;-77
2022/08/04 01:40:26;;;;;;;5.40;3.42;;;;;;;23.26;47.96;99369.31;4487182;31;35729;-77
2022/08/04 01:42:54;;;;;;;6.07;3.92;;;;;;;23.12;48.29;99369.28;4501240;31;34678;-77
2022/08/04 01:45:23;;;;;;;4.45;3.20;;;;;;;22.93;48.64;99366.91;4493382;31;33409;-77
2022/08/04 01:47:53;;;;;;;5.10;3.20;;;;;;;23.40;47.55;99369.28;4498592;31;33785;-77
2022/08/04 01:50:22;;;;;;;6.68;3.35;;;;;;;23.51;47.40;99368.59;4486866;31;34549;-77
2022/08/04 01:52:52;;;;;;;5.37;3.42;;;;;;;23.43;47.50;99377.03;4500205;31;34683;-76
2022/08/04 01:55:22;;;;;;;5.72;3.37;;;;;;;23.21;47.75;99374.06;4501168;31;33499;-77
2022/08/04 01:57:51;;;;;;;4.78;3.50;;;;;;;23.17;47.80;99365.41;4498356;31;34047;-77
2022/08/04 02:00:25;;;;;;;6.95;3.85;;;;;;;23.64;46.91;99358.88;4500935;31;35030;-77
2022/08/04 02:02:55;;;;;;;5.70;3.28;;;;;;;23.30;48.07;99359.34;4500115;31;34364;-77
2022/08/04 02:05:25;;;;;;;6.87;3.90;;;;;;;23.00;49.21;99368.25;4500194;31;34220;-77
2022/08/04 02:08:42;;;;;;;4.97;3.10;;;;;;;22.99;48.75;99366.50;4487530;31;34138;-77
2022/08/04 02:11:21;;;;;;;4.80;3.17;;;;;;;22.93;48.92;99361.59;4483809;32;35279;-77
2022/08/04 02:14:11;;;;;;;7.03;3.65;;;;;;;23.03;48.55;99362.72;4490277;31;34094;-77
2022/08/04 02:16:49;;;;;;;4.75;3.37;;;;;;;23.08;48.39;99365.97;4495751;31;33513;-77
2022/08/04 02:19:29;;;;;;;4.78;3.22;;;;;;;23.08;49.23;99363.31;4501800;31;34747;-77
2022/08/04 02:22:07;;;;;;;6.10;4.05;;;;;;;23.07;49.35;99357.16;4500555;31;36019;-76
2022/08/04 02:24:45;;;;;;;6.47;3.90;;;;;;;22.84;49.07;99357.69;4500395;31;35216;-77
2022/08/04 02:27:13;;;;;;;6.05;3.65;;;;;;;22.90;49.07;99352.84;4500360;31;34485;-76
2022/08/04 02:29:50;;;;;;;5.35;3.35;;;;;;;23.32;48.25;99358.28;4487744;31;33916;-77
2022/08/04 02:32:26;;;;;;;10.65;3.70;;;;;;;23.26;48.09;99362.19;4497920;31;35741;-77
2022/08/04 02:35:05;;;;;;;8.43;3.92;;;;;;;23.02;48.59;99355.72;4501550;31;34436;-77
2022/08/04 02:37:34;;;;;;;4.50;3.50;;;;;;;22.99;48.63;99353.22;4501980;31;33561;-76
2022/08/04 02:40:05;;;;;;;4.45;3.12;;;;;;;23.59;47.10;99352.16;4502682;31;33796;-77
2022/08/04 02:42:34;;;;;;;5.40;3.30;;;;;;;22.97;48.61;99348.00;4501862;31;35034;-77
2022/08/04 02:45:02;;;;;;;4.55;3.25;;;;;;;22.66;49.41;99354.34;4492822;31;35185;-77
2022/08/04 02:47:31;;;;;;;5.05;3.37;;;;;;;22.98;48.61;99360.34;4495431;31;33568;-76
2022/08/04 02:50:19;;;;;;;4.28;3.10;;;;;;;23.12;48.47;99356.00;4501519;31;34854;-76
2022/08/04 02:53:00;;;;;;;4.32;2.95;;;;;;;22.90;48.72;99355.50;4501672;31;35978;-77
2022/08/04 02:55:28;;;;;;;5.97;3.95;;;;;;;22.96;48.69;99351.63;4501423;31;34611;-76
2022/08/04 02:58:01;;;;;;;5.22;3.20;;;;;;;22.66;49.47;99352.56;4484738;31;33420;-76
2022/08/04 03:00:30;;;;;;;4.43;3.15;;;;;;;22.57;49.61;99349.59;4472741;32;34079;-76
2022/08/04 03:03:21;;;;;;;3.78;3.00;;;;;;;23.30;48.00;99354.03;4495009;31;35921;-77
2022/08/04 03:06:10;;;;;;;5.12;4.10;;;;;;;22.72;48.86;99349.53;4486840;32;35207;-76
2022/08/04 03:08:41;;;;;;;4.40;3.10;;;;;;;22.70;48.75;99348.75;4499062;31;33429;-77
2022/08/04 03:11:32;;;;;;;4.65;3.12;;;;;;;22.93;48.22;99346.50;4501327;31;34054;-77
2022/08/04 03:14:19;;;;;;;5.70;3.17;;;;;;;22.51;48.91;99356.97;4499911;31;35928;-77
2022/08/04 03:17:24;;;;;;;4.93;3.20;;;;;;;22.70;49.56;99355.88;4501584;31;34676;-76
2022/08/04 03:20:13;;;;;;;5.70;2.83;;;;;;;22.46;49.98;99353.75;4500371;31;34348;-76
2022/08/04 03:22:51;;;;;;;4.53;3.05;;;;;;;23.00;48.38;99354.97;4501598;31;34010;-76
2022/08/04 03:26:23;;;;;;;4.55;3.30;;;;;;;22.52;49.36;99350.75;4502379;31;35796;-76
2022/08/04 03:29:11;;;;;;;7.87;3.00;;;;;;;22.72;48.87;99351.34;4466043;31;35066;-77
2022/08/04 03:32:16;;;;;;;4.28;3.30;;;;;;;22.53;49.21;99354.22;4501243;31;32828;-77
2022/08/04 03:35:03;;;;;;;7.12;3.10;;;;;;;22.72;48.78;99359.28;4486639;32;33945;-76
2022/08/04 03:38:01;;;;;;;4.30;3.20;;;;;;;22.40;49.16;99359.44;4490682;31;35863;-76
2022/08/04 03:40:41;;;;;;;4.57;3.22;;;;;;;22.85;48.37;99357.62;4502321;31;35234;-76
2022/08/04 03:43:23;;;;;;;4.22;2.95;;;;;;;22.99;48.76;99361.19;4500534;31;34209;-76
2022/08/04 03:46:29;;;;;;;5.15;3.12;;;;;;;22.00;51.70;99366.19;4501340;31;33937;-76
2022/08/04 03:49:16;;;;;;;4.10;2.72;;;;;;;22.41;49.33;99363.78;4499706;31;35163;-77
2022/08/04 03:55:31;;;;;;;5.20;3.30;;;;;;;22.17;50.77;99367.87;4486399;32;33471;-77
2022/08/04 03:58:37;;;;;;;5.05;3.25;;;;;;;22.25;49.78;99360.28;4493235;31;34671;-77
2022/08/04 04:01:23;;;;;;;5.65;2.92;;;;;;;22.27;50.25;99371.69;4502075;31;35985;-77
2022/08/04 04:04:10;;;;;;;4.28;2.95;;;;;;;22.36;50.68;99371.19;4499050;31;34527;-76
2022/08/04 04:06:47;;;;;;;4.10;2.90;;;;;;;22.69;50.56;99375.41;4500015;31;34324;-77
2022/08/04 04:09:40;;;;;;;5.18;2.70;;;;;;;22.93;47.93;99370.41;4502124;31;34235;-77
2022/08/04 04:12:48;;;;;;;7.75;2.90;;;;;;;22.81;49.97;99377.31;4488911;31;35225;-77
2022/08/04 04:15:29;;;;;;;5.90;3.10;;;;;;;23.15;47.31;99375.25;4500902;31;34483;-76
2022/08/04 04:18:28;;;;;;;4.25;2.70;;;;;;;23.76;47.00;99377.66;4501248;31;34456;-77
2022/08/04 04:21:20;;;;;;;4.20;2.78;;;;;;;23.86;47.39;99370.81;4502028;31;34039;-77
2022/08/04 04:24:16;;;;;;;4.62;2.80;;;;;;;23.87;46.23;99369.84;4497547;31;35897;-77
2022/08/04 04:26:56;;;;;;;7.60;3.20;;;;;;;23.62;46.38;99371.41;4502025;31;35256;-77
2022/08/04 04:29:46;;;;;;;6.18;3.10;;;;;;;23.85;46.26;99377.09;4499699;31;33393;-77
2022/08/04 04:32:35;;;;;;;5.00;2.92;;;;;;;23.73;46.15;99372.53;4501163;31;34724;-77
2022/08/04 04:35:28;;;;;;;5.03;2.72;;;;;;;23.85;46.07;99377.09;4501964;31;36010;-77
2022/08/04 04:38:14;;;;;;;3.00;2.37;;;;;;;23.76;44.97;99372.34;4498702;31;34453;-77
2022/08/04 04:41:09;;;;;;;5.82;2.50;;;;;;;23.61;45.36;99385.66;4501109;31;33292;-77
2022/08/04 04:44:04;;;;;;;3.97;2.80;;;;;;;24.26;44.59;99392.13;4499603;31;34825;-76
2022/08/04 04:46:53;;;;;;;6.60;2.85;;;;;;;24.51;44.34;99390.47;4501699;31;34861;-77
2022/08/04 04:49:34;;;;;;;3.83;2.92;;;;;;;24.56;44.90;99391.87;4499325;31;35094;-77
2022/08/04 04:52:07;;;;;;;8.13;2.70;;;;;;;24.78;43.47;99382.44;4500632;31;34187;-76
2022/08/04 04:54:59;;;;;;;3.62;2.60;;;;;;;24.52;44.56;99394.84;4501158;31;34703;-77
2022/08/04 04:57:30;;;;;;;4.50;2.87;;;;;;;24.42;44.07;99391.94;4499726;31;35092;-76
2022/08/04 05:00:19;;;;;;;4.93;2.72;;;;;;;24.39;44.97;99402.81;4488959;31;33577;-77
2022/08/04 05:03:26;;;;;;;3.28;2.55;;;;;;;24.34;45.86;99391.63;4499088;31;34363;-77
2022/08/04 05:06:33;;;;;;;3.42;2.42;;;;;;;25.43;42.45;99389.47;4500585;31;34689;-76
2022/08/04 05:09:35;;;;;;;5.07;2.78;;;;;;;25.77;41.75;99395.00;4432706;32;34252;-76
2022/08/04 05:12:31;;;;;;;3.28;2.28;;;;;;;25.30;43.79;99401.94;4485718;32;34459;-77
2022/08/04 05:15:25;;;;;;;5.43;2.62;;;;;;;25.69;40.77;99398.22;4485168;32;34480;-77
2022/08/04 05:17:54;;;;;;;6.50;3.22;;;;;;;25.79;41.62;99401.09;4484859;31;34146;-77
2022/08/04 05:20:29;;;;;;;4.70;2.25;;;;;;;25.82;42.41;99400.88;4499533;31;35958;-76
2022/08/04 05:23:07;;;;;;;4.32;2.72;;;;;;;25.60;41.75;99400.72;4486742;31;33855;-76
2022/08/04 05:25:52;;;;;;;6.60;2.90;;;;;;;26.15;39.83;99407.34;4499444;31;33470;-76
2022/08/04 05:28:32;;;;;;;4.93;2.85;;;;;;;26.15;41.86;99407.34;4500570;31;33938;-77
2022/08/04 05:31:19;;;;;;;5.43;2.50;;;;;;;26.37;39.88;99411.12;4500340;31;35913;-76
2022/08/04 05:34:01;;;;;;;4.55;2.90;;;;;;;26.76;38.85;99409.91;4498892;31;34451;-76
2022/08/04 05:36:33;;;;;;;4.82;2.20;;;;;;;26.47;39.07;99412.97;4500406;31;33412;-77
2022/08/04 05:39:16;;;;;;;5.47;2.47;;;;;;;26.56;38.93;99411.44;4498644;31;34656;-77
2022/08/04 05:41:44;;;;;;;4.22;2.58;;;;;;;26.66;38.10;99411.59;4500496;31;35110;-77
2022/08/04 05:44:24;;;;;;;7.78;2.50;;;;;;;26.76;39.26;99412.59;4500530;31;34317;-77
2022/08/04 05:46:55;;;;;;;5.53;3.05;;;;;;;27.33;38.26;99415.34;4501057;31;33036;-77
2022/08/04 05:49:25;;;;;;;8.32;2.42;;;;;;;27.69;37.05;99419.59;4498613;31;34783;-77
2022/08/04 05:51:55;;;;;;;5.57;2.20;;;;;;;27.80;37.35;99424.06;4500562;31;35040;-77
2022/08/04 05:54:24;;;;;;;4.55;2.50;;;;;;;28.04;38.20;99421.22;4498421;31;35168;-77
2022/08/04 05:56:52;;;;;;;6.12;2.55;;;;;;;28.25;36.20;99425.78;4499271;31;33424;-77
2022/08/04 05:59:24;;;;;;;3.97;2.42;;;;;;;28.98;34.94;99425.91;4486353;31;33312;-77
2022/08/04 06:01:55;;;;;;;4.57;2.37;;;;;;;27.76;35.45;99428.81;4499912;31;35632;-76
2022/08/04 06:04:46;;;;;;;4.78;2.80;;;;;;;28.56;34.73;99432.16;4498300;31;34463;-76
2022/08/04 06:07:14;;;;;;;8.90;3.15;;;;;;;28.42;34.62;99430.59;4499837;31;34558;-77
2022/08/04 06:09:42;;;;;;;3.25;2.17;;;;;;;28.66;34.51;99417.00;4499046;31;33825;-77
2022/08/04 06:12:14;;;;;;;4.85;2.47;;;;;;;28.72;34.82;99423.66;4494861;31;34995;-77
2022/08/04 06:14:44;;;;;;;6.68;2.60;;;;;;;28.63;33.80;99437.84;4498849;31;35080;-77
2022/08/04 06:17:15;;;;;;;3.10;2.08;;;;;;;28.58;33.88;99424.81;4500830;31;33438;-77
2022/08/04 06:20:05;;;;;;;6.25;2.37;;;;;;;28.86;34.07;99423.31;4487160;31;33971;-77
2022/08/04 06:22:51;;;;;;;4.87;2.33;;;;;;;28.67;34.93;99424.03;4498993;31;35048;-77
2022/08/04 06:25:24;;;;;;;8.02;2.60;;;;;;;29.19;33.32;99429.47;4499508;31;34563;-77
2022/08/04 06:27:52;;;;;;;5.32;2.42;;;;;;;29.93;32.42;99425.66;4485639;31;33303;-77
2022/08/04 06:30:24;;;;;;;4.32;2.55;;;;;;;29.50;33.20;99427.59;4499389;31;33936;-77
2022/08/04 06:32:59;;;;;;;4.05;2.60;;;;;;;30.10;32.17;99418.75;4498750;31;35995;-77
2022/08/04 06:35:32;;;;;;;4.50;2.50;;;;;;;29.48;33.74;99423.38;4499809;31;34405;-77
2022/08/04 06:38:01;;;;;;;4.60;2.53;;;;;;;29.50;33.65;99432.13;4497218;31;33430;-77
2022/08/04 06:40:32;;;;;;;4.22;2.30;;;;;;;29.96;33.85;99428.03;4483536;32;33314;-77
2022/08/04 06:43:03;;;;;;;6.00;2.25;;;;;;;29.79;31.58;99426.03;4485471;31;34952;-77
2022/08/04 06:45:33;;;;;;;5.30;2.33;;;;;;;30.22;32.06;99422.16;4499565;31;34439;-77
2022/08/04 06:48:04;;;;;;;5.07;2.45;;;;;;;30.40;32.76;99425.84;4498070;31;33457;-77
2022/08/04 06:50:35;;;;;;;7.97;2.60;;;;;;;30.48;31.62;99413.53;4499260;31;33137;-77
2022/08/04 06:53:25;;;;;;;16.15;2.85;;;;;;;30.97;29.73;99425.97;4499001;31;35843;-77
2022/08/04 06:55:53;;;;;;;3.62;2.10;;;;;;;30.96;30.03;99421.56;4499139;31;34405;-77
2022/08/04 06:58:22;;;;;;;4.35;2.65;;;;;;;31.59;30.38;99416.53;4499345;31;34202;-77
2022/08/04 07:00:50;;;;;;;3.03;2.28;;;;;;;31.19;29.70;99426.59;4499036;31;34130;-77
2022/08/04 07:03:20;;;;;;;5.78;2.37;;;;;;;32.16;29.06;99425.28;4497818;31;35757;-77
2022/08/04 07:05:50;;;;;;;6.30;2.70;;;;;;;32.07;29.08;99421.66;4501494;31;34399;-77
2022/08/04 07:08:19;;;;;;;4.60;2.65;;;;;;;31.27;29.92;99423.16;4500212;31;34365;-77
2022/08/04 07:10:47;;;;;;;4.70;2.72;;;;;;;31.55;30.88;99427.63;4497608;31;34818;-77
2022/08/04 07:13:16;;;;;;;4.65;2.53;;;;;;;31.92;30.14;99428.53;4487814;31;35981;-77
2022/08/04 07:15:46;;;;;;;5.18;2.80;;;;;;;32.13;29.74;99431.81;4502472;31;34542;-77
2022/08/04 07:18:13;;;;;;;7.93;2.72;;;;;;;31.66;29.12;99425.72;4498615;31;33856;-77
2022/08/04 07:20:43;;;;;;;6.95;2.37;;;;;;;31.76;30.51;99431.88;4501170;31;34712;-77
2022/08/04 07:23:16;;;;;;;5.50;2.30;;;;;;;32.49;28.04;99433.66;4500302;31;37208;-77
2022/08/04 07:25:51;;;;;;;5.85;2.20;;;;;;;31.46;29.49;99423.09;4502365;31;34522;-77
2022/08/04 07:28:40;;;;;;;3.17;2.43;;;;;;;32.44;28.89;99422.53;4501700;31;34159;-77
2022/08/04 07:31:11;;;;;;;4.22;2.30;;;;;;;32.38;28.46;99425.81;4501912;31;34220;-77
2022/08/04 07:34:00;;;;;;;7.60;2.40;;;;;;;32.14;29.40;99421.91;4498830;31;36006;-77
2022/08/04 07:36:53;;;;;;;4.03;2.67;;;;;;;31.84;28.76;99426.59;4501354;31;34479;-77
2022/08/04 07:39:25;;;;;;;4.30;2.15;;;;;;;32.45;28.92;99418.81;4496279;31;33256;-77
2022/08/04 07:42:01;;;;;;;3.37;2.22;;;;;;;32.52;28.00;99422.56;4501102;31;33123;-76
2022/08/04 07:44:34;;;;;;;4.57;2.65;;;;;;;32.61;28.13;99423.50;4499041;31;35985;-77
2022/08/04 07:47:04;;;;;;;3.12;2.33;;;;;;;33.19;27.85;99416.69;4501083;31;35264;-77
2022/08/04 07:49:33;;;;;;;5.57;1.98;;;;;;;33.81;26.16;99414.63;4501897;31;34317;-76
2022/08/04 07:52:21;;;;;;;4.05;2.50;;;;;;;33.70;26.85;99411.38;4501177;31;33991;-77
2022/08/04 07:54:50;;;;;;;4.90;2.33;;;;;;;33.77;26.56;99413.25;4499514;31;35149;-77
2022/08/04 07:57:19;;;;;;;3.62;2.22;;;;;;;33.83;26.48;99413.59;4501009;31;34569;-77
2022/08/04 08:00:09;;;;;;;3.37;1.80;;;;;;;34.24;25.90;99405.59;4501612;31;34271;-77
2022/08/04 08:02:38;;;;;;;6.90;2.20;;;;;;;34.43;25.46;99407.94;4502203;31;33154;-76
2022/08/04 08:05:09;;;;;;;3.55;2.00;;;;;;;35.26;24.55;99398.75;4498247;31;35843;-77
2022/08/04 08:07:37;;;;;;;2.97;2.10;;;;;;;34.04;24.85;99410.44;4491729;31;33336;-77
2022/08/04 08:10:22;;;;;;;2.92;2.22;;;;;;;34.56;25.06;99402.91;4500037;31;32245;-77
2022/08/04 08:12:51;;;;;;;6.55;2.42;;;;;;;34.46;25.49;99404.09;4500434;31;33903;-77
2022/08/04 08:15:20;;;;;;;2.47;2.03;;;;;;;34.08;24.94;99409.06;4499394;31;35001;-77
2022/08/04 08:17:48;;;;;;;3.97;2.00;;;;;;;35.54;24.09;99408.28;4500868;31;34667;-76
2022/08/04 08:20:31;;;;;;;7.72;2.15;;;;;;;35.92;23.79;99417.44;4500551;31;32874;-77
2022/08/04 08:23:00;;;;;;;2.90;2.15;;;;;;;34.71;25.40;99404.94;4499456;31;33825;-77
2022/08/04 08:25:32;;;;;;;5.57;2.50;;;;;;;35.47;23.85;99395.47;4499969;31;34804;-77
2022/08/04 08:28:03;;;;;;;5.82;2.58;;;;;;;35.28;24.39;99398.56;4502000;31;35150;-77
2022/08/04 08:30:34;;;;;;;4.90;2.10;;;;;;;35.64;24.32;99398.91;4501637;31;32589;-77
2022/08/04 08:33:08;;;;;;;3.22;2.10;;;;;;;36.14;22.15;99404.06;4500878;31;33562;-77
2022/08/04 08:36:01;;;;;;;7.55;2.30;;;;;;;35.50;24.37;99403.22;4497824;31;35544;-77
2022/08/04 08:38:46;;;;;;;5.60;2.97;;;;;;;36.33;21.95;99403.62;4490962;31;35084;-77
2022/08/04 08:41:20;;;;;;;4.50;2.08;;;;;;;36.45;22.91;99412.16;4500801;31;33624;-77
2022/08/04 08:44:01;;;;;;;3.03;1.90;;;;;;;36.73;22.36;99409.75;4499630;31;34819;-77
2022/08/04 08:46:40;;;;;;;;;;;;;;;35.68;23.24;99405.66;4502411;31;35896;-77
2022/08/04 08:49:30;;;;;;;2.60;2.05;;;;;;;36.02;22.91;99406.34;4499745;31;35582;-77
2022/08/04 08:52:37;;;;;;;4.60;1.98;;;;;;;35.85;23.29;99406.47;4501827;31;33441;-77
2022/08/04 08:55:52;;;;;;;2.75;2.03;;;;;;;35.92;23.03;99408.47;4499438;31;34513;-77
2022/08/04 08:58:54;;;;;;;2.58;2.00;;;;;;;35.10;23.43;99396.94;4500231;31;35037;-77
2022/08/04 09:01:43;;;;;;;5.70;2.28;;;;;;;35.87;22.70;99403.56;4485891;32;35310;-77
2022/08/04 09:04:53;;;;;;;2.97;2.00;;;;;;;36.80;21.64;99404.44;4491141;31;34212;-77
2022/08/04 09:07:48;;;;;;;4.35;2.10;;;;;;;36.11;23.38;99404.41;4471149;31;33727;-76
2022/08/04 09:10:41;;;;;;;3.20;2.30;;;;;;;37.06;20.75;99408.56;4490260;31;35015;-77
2022/08/04 09:13:29;;;;;;;3.87;1.80;;;;;;;36.64;21.42;99410.81;4484673;32;34309;-77
2022/08/04 09:16:03;;;;;;;5.45;2.12;;;;;;;35.98;23.12;99400.44;4485827;32;33435;-77
2022/08/04 09:18:42;;;;;;;4.78;2.20;;;;;;;36.30;22.37;99406.69;4486401;31;34856;-77
2022/08/04 09:21:32;;;;;;;4.28;1.95;;;;;;;35.86;22.51;99412.72;4501795;31;34962;-77
2022/08/04 09:24:15;;;;;;;3.65;2.30;;;;;;;36.39;21.94;99407.47;4499013;31;34509;-77
2022/08/04 09:27:15;;;;;;;5.28;2.20;;;;;;;36.84;21.32;99413.03;4497080;31;33893;-77
2022/08/04 09:29:47;;;;;;;3.55;2.30;;;;;;;36.01;22.53;99399.25;4500620;31;34033;-77
2022/08/04 09:32:28;;;;;;;7.00;2.62;;;;;;;35.58;23.36;99399.66;4500295;31;35113;-77
2022/08/04 09:35:02;;;;;;;2.72;2.10;;;;;;;35.17;22.86;99407.88;4500319;31;35362;-77
2022/08/04 09:37:42;;;;;;;6.05;2.35;;;;;;;35.56;22.09;99406.25;4501171;31;33686;-77
2022/08/04 09:40:25;;;;;;;6.10;2.28;;;;;;;35.55;22.28;99401.88;4499058;31;34854;-76
2022/08/04 09:43:28;;;;;;;2.72;1.90;;;;;;;35.64;22.10;99408.91;4500493;31;35010;-77
2022/08/04 09:46:32;;;;;;;3.72;2.30;;;;;;;35.24;23.00;99398.06;4489322;31;34366;-77
2022/08/04 09:49:13;;;;;;;2.50;2.05;;;;;;;35.20;25.15;99396.75;4498608;31;33438;-77
2022/08/04 09:51:52;;;;;;;3.20;2.30;;;;;;;36.60;21.89;99388.66;4500074;31;33825;-77
2022/08/04 09:54:59;;;;;;;3.05;2.12;;;;;;;35.88;23.27;99379.00;4500232;31;35149;-77
2022/08/04 09:57:40;;;;;;;5.87;2.33;;;;;;;36.90;21.24;99390.56;4500370;31;35220;-77
2022/08/04 10:00:12;;;;;;;3.62;2.40;;;;;;;36.15;23.14;99378.66;4498257;31;34092;-77
2022/08/04 10:02:43;;;;;;;5.70;2.60;;;;;;;37.21;22.87;99379.56;4499977;31;34743;-77
2022/08/04 10:05:22;;;;;;;8.43;2.10;;;;;;;36.53;21.96;99379.53;4498604;31;34736;-77
2022/08/04 10:08:09;;;;;;;5.47;2.50;;;;;;;36.30;22.25;99376.84;4499808;31;34522;-77
2022/08/04 10:10:59;;;;;;;3.65;2.10;;;;;;;36.34;21.90;99369.19;4498672;31;33676;-77
2022/08/04 10:13:30;;;;;;;3.40;2.20;;;;;;;37.66;20.32;99372.22;4498051;31;34078;-77
2022/08/04 10:16:31;;;;;;;4.75;2.15;;;;;;;36.99;21.08;99370.44;4489532;31;35063;-77
2022/08/04 10:19:22;;;;;;;2.33;2.10;;;;;;;37.11;21.49;99374.38;4460722;31;35227;-77
2022/08/04 10:22:08;;;;;;;2.55;1.95;;;;;;;38.12;19.96;99366.47;4499954;31;33084;-77
2022/08/04 10:25:21;;;;;;;2.75;2.20;;;;;;;36.89;20.52;99367.19;4499925;31;34892;-77
2022/08/04 10:28:12;;;;;;;5.72;2.55;;;;;;;36.11;21.83;99361.06;4499638;31;35809;-77
2022/08/04 10:30:51;;;;;;;3.58;2.37;;;;;;;36.87;21.27;99371.94;4498212;31;34613;-77
2022/08/04 10:33:32;;;;;;;3.95;2.30;;;;;;;37.84;19.53;99369.06;4499810;31;33781;-77
2022/08/04 10:36:03;;;;;;;3.80;2.62;;;;;;;37.52;20.23;99363.03;4500342;31;34328;-77
2022/08/04 10:39:02;;;;;;;4.50;2.83;;;;;;;36.44;24.24;99362.50;4499962;31;35880;-77
2022/08/04 10:41:54;;;;;;;3.00;2.10;;;;;;;37.07;22.66;99354.06;4485838;32;35292;-77
2022/08/04 10:44:54;;;;;;;4.03;2.57;;;;;;;37.92;21.59;99347.19;4490183;31;33521;-77
2022/08/04 10:47:31;;;;;;;2.90;2.17;;;;;;;38.47;19.10;99346.66;4502694;31;34786;-77
2022/08/04 10:50:00;;;;;;;4.82;2.35;;;;;;;37.77;20.28;99343.72;4500112;31;35949;-77
2022/08/04 10:52:33;;;;;;;5.32;2.37;;;;;;;37.48;20.31;99347.31;4501779;31;33760;-77
2022/08/04 10:55:25;;;;;;;2.78;2.30;;;;;;;37.09;21.64;99338.44;4500348;31;33253;-77
2022/08/04 10:58:19;;;;;;;4.35;2.30;;;;;;;37.24;20.66;99338.47;4501572;31;33884;-77
2022/08/04 11:00:48;;;;;;;3.70;2.78;;;;;;;38.30;19.77;99333.34;4499954;31;35886;-77
2022/08/04 11:03:23;;;;;;;6.10;2.53;;;;;;;38.95;19.92;99327.75;4500357;31;35240;-77
2022/08/04 11:05:54;;;;;;;2.58;2.30;;;;;;;37.91;20.94;99323.78;4487746;31;34315;-77
2022/08/04 11:08:44;;;;;;;3.90;2.42;;;;;;;37.69;20.69;99322.91;4502529;31;34053;-77
2022/08/04 11:11:38;;;;;;;3.55;2.50;;;;;;;37.68;21.62;99323.09;4489105;31;35096;-77
2022/08/04 11:14:32;;;;;;;3.75;2.45;;;;;;;37.98;21.25;99314.81;4489654;31;34529;-77
2022/08/04 11:17:04;;;;;;;4.03;2.50;;;;;;;38.69;19.54;99323.00;4501312;31;33579;-77
2022/08/04 11:19:35;;;;;;;3.58;2.45;;;;;;;39.06;19.27;99320.91;4498658;31;34620;-77
2022/08/04 11:22:24;;;;;;;3.28;2.60;;;;;;;38.36;20.93;99323.56;4502489;31;34894;-77
2022/08/04 11:25:13;;;;;;;2.92;2.42;;;;;;;37.61;20.64;99317.59;4499897;31;34503;-77
2022/08/04 11:27:55;;;;;;;3.70;2.60;;;;;;;39.50;20.81;99325.09;4500663;31;34511;-77
2022/08/04 11:30:24;;;;;;;5.05;3.25;;;;;;;39.51;19.04;99313.13;4498193;31;33914;-77
2022/08/04 11:33:16;;;;;;;4.28;2.70;;;;;;;38.93;19.19;99315.37;4501354;31;35964;-77
2022/08/04 11:36:15;;;;;;;3.92;2.58;;;;;;;39.27;20.33;99317.25;4497244;31;34349;-77
2022/08/04 11:39:32;;;;;;;4.12;2.78;;;;;;;39.23;17.87;99302.31;4502170;31;34283;-77
2022/08/04 11:42:15;;;;;;;4.57;2.80;;;;;;;38.95;17.78;99308.69;4459665;31;34711;-77
2022/08/04 11:44:55;;;;;;;5.80;2.85;;;;;;;38.52;18.78;99313.41;4489801;31;35618;-77
2022/08/04 11:47:23;;;;;;;6.78;2.72;;;;;;;37.19;20.09;99311.03;4499294;31;35259;-77
2022/08/04 11:50:09;;;;;;;5.62;3.08;;;;;;;37.30;20.59;99296.97;4501071;31;34378;-77
2022/08/04 11:52:40;;;;;;;5.60;3.33;;;;;;;37.10;19.83;99302.13;4499589;31;34109;-77
2022/08/04 11:55:10;;;;;;;4.90;2.90;;;;;;;36.77;22.19;99297.09;4500960;31;35042;-77
2022/08/04 11:57:39;;;;;;;5.07;2.95;;;;;;;37.14;20.58;99289.84;4501505;31;33766;-77
2022/08/04 12:00:09;;;;;;;8.85;2.25;;;;;;;36.99;22.06;99281.72;4502240;31;34148;-78
2022/08/04 12:03:08;;;;;;;3.97;2.30;;;;;;;37.11;20.02;99287.50;4499644;31;34777;-77
2022/08/04 12:05:52;;;;;;;4.28;2.60;;;;;;;37.02;20.39;99288.62;4500521;31;35061;-77
2022/08/04 12:08:55;;;;;;;4.10;2.80;;;;;;;36.25;21.17;99277.09;4499049;31;35297;-77
2022/08/04 12:11:38;;;;;;;8.73;2.87;;;;;;;36.70;20.54;99285.28;4501004;31;33531;-77
2022/08/04 12:14:19;;;;;;;4.30;3.00;;;;;;;37.15;20.39;99277.09;4502076;31;34824;-77
2022/08/04 12:16:54;;;;;;;5.15;2.87;;;;;;;36.95;20.84;99272.25;4499994;31;35027;-78
2022/08/04 12:19:29;;;;;;;5.18;3.33;;;;;;;37.17;21.14;99270.50;4500004;31;35075;-77
2022/08/04 12:22:21;;;;;;;8.25;2.90;;;;;;;37.53;20.18;99253.31;4499661;31;34495;-78
2022/08/04 12:25:07;;;;;;;5.30;2.50;;;;;;;37.34;20.39;99262.94;4500966;31;34106;-77
2022/08/04 12:27:46;;;;;;;3.12;2.47;;;;;;;37.93;20.41;99266.50;4500977;31;36001;-77
2022/08/04 12:30:17;;;;;;;3.67;2.90;;;;;;;38.00;20.55;99266.53;4502107;31;34323;-76
2022/08/04 12:33:31;;;;;;;3.33;2.50;;;;;;;38.54;18.62;99259.63;4500722;31;33569;-77
2022/08/04 12:36:55;;;;;;;6.10;3.05;;;;;;;37.68;19.55;99257.88;4499842;31;34097;-77
2022/08/04 12:39:25;;;;;;;4.65;2.78;;;;;;;37.55;20.26;99248.53;4500623;31;35147;-77
2022/08/04 12:42:03;;;;;;;4.00;2.58;;;;;;;37.78;20.57;99255.69;4499310;31;33690;-77
2022/08/04 12:44:36;;;;;;;4.32;2.62;;;;;;;37.08;19.79;99255.31;4501983;31;33462;-77
2022/08/04 12:47:08;;;;;;;4.35;2.55;;;;;;;37.75;18.53;99250.62;4486689;31;33810;-77